Terminal Aerodrome Forecast
Issued by NWS

Home | Current Version | Previous Version | Graphics & Text | Print | Product List | Glossary On
Versions: 1 2 3 4 5 6 7 8 9 10 11 12 13 14 15 16 17 18
570
FTUS43 KMPX 250536 AAA
TAFRNH
TAF AMD
KRNH 250536Z 2506/2606 14007KT P6SM BKN110
     FM251200 16009KT P6SM SHRA SCT060 BKN110
     FM251500 16011KT P6SM VCSH BKN060
     FM251700 17013KT P6SM SCT090
     FM260300 17007KT P6SM SHRA VCTS BKN040CB=

USA.gov is the U.S. government's official web portal to all federal, state and local government web resources and services.